Time;durP1;ratioP1;P1;durP2;ratioP2;P2;SDS_P1;SDS_P2;PMS_P1;PMS_P2;Temp;Humidity;BMP_temperature;BMP_pressure;BME280_temperature;BME280_humidity;BME280_pressure;Samples;Min_cycle;Max_cycle;Signal;HPM_P1;HPM_P2
2023/08/09 00:00:35;;;;;;;3.00;1.80;;;14.80;99.90;;;;;;4996378;28;20538;-59
2023/08/09 00:03:02;;;;;;;3.33;1.90;;;14.70;99.90;;;;;;4997539;28;20845;-57
2023/08/09 00:05:29;;;;;;;1.80;1.50;;;14.70;99.90;;;;;;4995209;28;20538;-58
2023/08/09 00:07:56;;;;;;;4.03;1.70;;;14.60;99.90;;;;;;4995434;28;20470;-59
2023/08/09 00:10:23;;;;;;;2.90;1.70;;;14.60;99.90;;;;;;5012485;28;20426;-49
2023/08/09 00:12:50;;;;;;;2.63;1.63;;;14.60;99.90;;;;;;5019196;28;20458;-45
2023/08/09 00:15:18;;;;;;;3.33;2.30;;;14.60;99.90;;;;;;5019208;28;20468;-51
2023/08/09 00:17:45;;;;;;;2.37;1.70;;;14.60;99.90;;;;;;5017402;28;20418;-58
2023/08/09 00:20:13;;;;;;;3.37;1.70;;;14.60;99.90;;;;;;5016350;28;20438;-50
2023/08/09 00:22:40;;;;;;;2.50;1.77;;;14.60;99.90;;;;;;5015051;28;20457;-56
2023/08/09 00:25:10;;;;;;;2.40;1.80;;;14.60;99.90;;;;;;5016318;28;20458;-57
2023/08/09 00:27:38;;;;;;;2.40;1.77;;;14.60;99.90;;;;;;5016561;28;20434;-53
2023/08/09 00:30:05;;;;;;;1.83;1.33;;;14.60;99.90;;;;;;5016390;28;20501;-57
2023/08/09 00:32:34;;;;;;;1.97;1.67;;;14.60;99.90;;;;;;4999505;28;20482;-59
2023/08/09 00:35:01;;;;;;;2.20;1.83;;;14.60;99.90;;;;;;4995634;28;21033;-59
2023/08/09 00:37:27;;;;;;;2.83;2.63;;;14.60;99.90;;;;;;4995171;28;20484;-58
2023/08/09 00:39:55;;;;;;;1.40;1.30;;;14.60;99.90;;;;;;4995170;28;20500;-59
2023/08/09 00:42:23;;;;;;;6.10;1.87;;;14.60;99.90;;;;;;4995255;28;20450;-58
2023/08/09 00:44:49;;;;;;;3.27;2.00;;;14.60;99.90;;;;;;4995121;28;20448;-60
2023/08/09 00:47:17;;;;;;;1.80;1.50;;;14.60;99.90;;;;;;4994995;28;20556;-60
2023/08/09 00:49:46;;;;;;;2.60;1.70;;;14.60;99.90;;;;;;4995769;28;20445;-59
2023/08/09 00:52:13;;;;;;;2.60;2.07;;;14.50;99.90;;;;;;4996318;28;20472;-60
2023/08/09 00:54:41;;;;;;;2.90;2.00;;;14.50;99.90;;;;;;4996306;28;20512;-59
2023/08/09 00:57:10;;;;;;;2.83;1.83;;;14.50;99.90;;;;;;4996935;28;20441;-59
2023/08/09 00:59:37;;;;;;;2.47;1.60;;;14.50;99.90;;;;;;4999382;28;20544;-55
2023/08/09 01:02:04;;;;;;;2.13;1.53;;;14.50;99.90;;;;;;5002341;28;20477;-59
2023/08/09 01:04:31;;;;;;;2.30;1.67;;;14.50;99.90;;;;;;5013532;28;20488;-53
2023/08/09 01:07:08;;;;;;;1.80;1.63;;;14.50;99.90;;;;;;5022486;28;20421;-50
2023/08/09 01:09:38;;;;;;;1.70;1.60;;;14.50;99.90;;;;;;5022334;28;20481;-53
2023/08/09 01:12:08;;;;;;;2.57;1.73;;;14.50;99.90;;;;;;5020261;28;20423;-58
2023/08/09 01:14:39;;;;;;;2.97;1.77;;;14.50;99.90;;;;;;5002738;28;20466;-59
2023/08/09 01:17:08;;;;;;;2.17;1.60;;;14.50;99.90;;;;;;4998506;28;20434;-58
2023/08/09 01:19:40;;;;;;;1.80;1.30;;;14.50;99.90;;;;;;4998654;28;20560;-59
2023/08/09 01:22:15;;;;;;;1.70;1.27;;;14.50;99.90;;;;;;4999075;28;20460;-59
2023/08/09 01:24:44;;;;;;;5.63;1.83;;;14.50;99.90;;;;;;4999287;28;20429;-60
2023/08/09 01:27:11;;;;;;;1.87;1.33;;;14.50;99.90;;;;;;5002060;28;20506;-58
2023/08/09 01:29:39;;;;;;;4.60;1.73;;;14.50;99.90;;;;;;5009470;28;20442;-59
2023/08/09 01:32:05;;;;;;;2.27;2.07;;;14.50;99.90;;;;;;5016642;28;20460;-60
2023/08/09 01:34:32;;;;;;;1.77;1.57;;;14.40;99.90;;;;;;5012832;28;20938;-60
2023/08/09 01:37:10;;;;;;;3.37;1.73;;;14.50;99.90;;;;;;4997973;28;20497;-60
2023/08/09 01:39:38;;;;;;;1.80;1.37;;;14.50;99.90;;;;;;4997923;28;20512;-57
2023/08/09 01:42:08;;;;;;;1.97;1.47;;;14.50;99.90;;;;;;4998732;28;20550;-59
2023/08/09 01:44:37;;;;;;;1.40;1.23;;;14.50;99.90;;;;;;5001560;28;20809;-59
2023/08/09 01:47:05;;;;;;;3.97;1.70;;;14.50;99.90;;;;;;5000749;28;20445;-60
2023/08/09 01:49:32;;;;;;;2.53;1.83;;;14.50;99.90;;;;;;4999704;28;20485;-57
2023/08/09 01:51:59;;;;;;;2.13;1.90;;;14.50;99.90;;;;;;5000801;28;20493;-59
2023/08/09 01:54:26;;;;;;;11.33;1.80;;;14.50;99.90;;;;;;4997563;28;20766;-56
2023/08/09 01:56:53;;;;;;;2.43;1.60;;;14.40;99.90;;;;;;4997398;28;20485;-61
2023/08/09 01:59:23;;;;;;;3.73;2.30;;;14.50;99.90;;;;;;4997526;28;20489;-59
2023/08/09 02:01:49;;;;;;;3.50;1.43;;;14.50;99.90;;;;;;5003122;28;20430;-48
2023/08/09 02:04:16;;;;;;;2.03;1.40;;;14.50;99.90;;;;;;5021167;28;20466;-45
2023/08/09 02:06:43;;;;;;;3.97;1.80;;;14.50;99.90;;;;;;5021312;28;20414;-50
2023/08/09 02:09:10;;;;;;;1.43;1.30;;;14.60;99.90;;;;;;5021296;28;20410;-48
2023/08/09 02:11:37;;;;;;;2.63;1.70;;;14.50;99.90;;;;;;4999655;28;20545;-58
2023/08/09 02:14:05;;;;;;;2.10;1.90;;;14.50;99.90;;;;;;5002605;28;20541;-58
2023/08/09 02:16:33;;;;;;;2.10;1.63;;;14.50;99.90;;;;;;5001165;28;20528;-56
2023/08/09 02:19:01;;;;;;;3.17;1.80;;;14.50;99.90;;;;;;5005028;28;20528;-59
2023/08/09 02:21:30;;;;;;;3.13;1.80;;;14.50;99.90;;;;;;5005715;28;20462;-56
2023/08/09 02:23:57;;;;;;;2.63;2.33;;;14.50;99.90;;;;;;5011324;28;20446;-58
2023/08/09 02:26:24;;;;;;;2.23;1.67;;;14.60;99.90;;;;;;5009911;28;20442;-58
2023/08/09 02:28:51;;;;;;;2.60;1.70;;;14.50;99.90;;;;;;4996879;28;20477;-59
2023/08/09 02:31:19;;;;;;;2.60;1.43;;;14.50;99.90;;;;;;4997011;28;20458;-60
2023/08/09 02:33:47;;;;;;;3.60;2.00;;;14.50;99.90;;;;;;4997006;28;20549;-59
2023/08/09 02:36:14;;;;;;;1.73;1.40;;;14.50;99.90;;;;;;4996562;28;20572;-60
2023/08/09 02:38:41;;;;;;;3.20;1.70;;;14.50;99.90;;;;;;4996490;28;20560;-58
2023/08/09 02:41:08;;;;;;;2.40;1.93;;;14.50;99.90;;;;;;4996547;28;20434;-58
2023/08/09 02:43:36;;;;;;;2.40;1.70;;;14.50;99.90;;;;;;4996586;28;20473;-59
2023/08/09 02:46:04;;;;;;;3.50;1.40;;;14.40;99.90;;;;;;4996796;28;20868;-60
2023/08/09 02:48:31;;;;;;;2.17;1.50;;;14.50;99.90;;;;;;4996907;28;20438;-58
2023/08/09 02:51:03;;;;;;;3.00;1.43;;;14.50;99.90;;;;;;4997931;28;20540;-59
2023/08/09 02:53:37;;;;;;;4.40;1.40;;;14.50;99.90;;;;;;4998469;28;20431;-59
2023/08/09 02:56:04;;;;;;;3.60;2.03;;;14.50;99.90;;;;;;5000403;28;21038;-59
2023/08/09 02:58:31;;;;;;;2.30;1.80;;;14.50;99.90;;;;;;5004101;28;20839;-57
2023/08/09 03:00:58;;;;;;;2.47;1.70;;;14.60;99.90;;;;;;5014896;28;20466;-59
2023/08/09 03:03:25;;;;;;;5.03;1.70;;;14.50;99.90;;;;;;5015243;28;20446;-59
2023/08/09 03:05:54;;;;;;;3.43;1.80;;;14.50;99.90;;;;;;5014811;28;20493;-57
2023/08/09 03:08:22;;;;;;;3.70;2.20;;;14.50;99.90;;;;;;5014824;28;20431;-59
2023/08/09 03:10:49;;;;;;;2.80;1.50;;;14.50;99.90;;;;;;5017901;28;20442;-58
2023/08/09 03:13:16;;;;;;;3.13;1.57;;;14.50;99.90;;;;;;5018287;28;20492;-56
2023/08/09 03:15:45;;;;;;;5.33;2.27;;;14.50;99.90;;;;;;5017246;28;20516;-55
2023/08/09 03:18:12;;;;;;;6.67;2.40;;;14.50;99.90;;;;;;5003294;28;20502;-60
2023/08/09 03:20:39;;;;;;;2.27;1.73;;;14.50;99.90;;;;;;4996418;28;20438;-59
2023/08/09 03:23:09;;;;;;;2.20;1.93;;;14.50;99.90;;;;;;5010603;28;20464;-48
2023/08/09 03:25:38;;;;;;;4.10;1.87;;;14.50;99.90;;;;;;5019949;28;20423;-46
2023/08/09 03:28:05;;;;;;;2.03;1.80;;;14.50;99.90;;;;;;5019875;28;20462;-47
2023/08/09 03:30:32;;;;;;;2.17;1.53;;;14.50;99.90;;;;;;5005808;28;20434;-60
2023/08/09 03:32:59;;;;;;;4.80;1.60;;;14.50;99.90;;;;;;4996023;28;20536;-56
2023/08/09 03:35:26;;;;;;;2.27;2.03;;;14.50;99.90;;;;;;4996037;28;20484;-59
2023/08/09 03:37:53;;;;;;;2.10;1.90;;;14.50;99.90;;;;;;4996657;28;20995;-57
2023/08/09 03:40:23;;;;;;;2.40;1.67;;;14.50;99.90;;;;;;4996421;28;20477;-59
2023/08/09 03:42:51;;;;;;;6.00;2.00;;;14.50;99.90;;;;;;4999683;28;20485;-61
2023/08/09 03:45:18;;;;;;;3.93;2.30;;;14.50;99.90;;;;;;5013598;28;20470;-57
2023/08/09 03:47:45;;;;;;;2.63;2.00;;;14.50;99.90;;;;;;5014719;28;20442;-59
2023/08/09 03:50:12;;;;;;;3.07;1.60;;;14.50;99.90;;;;;;5000486;28;20446;-61
2023/08/09 03:52:42;;;;;;;3.23;1.73;;;14.50;99.90;;;;;;4996300;28;20819;-59
2023/08/09 03:55:10;;;;;;;2.30;1.40;;;14.40;99.90;;;;;;4997171;28;20478;-60
2023/08/09 03:57:37;;;;;;;2.00;1.40;;;14.40;99.90;;;;;;4997002;28;20866;-61
2023/08/09 04:00:09;;;;;;;2.00;1.50;;;14.40;99.90;;;;;;4995848;28;20923;-63
2023/08/09 04:02:35;;;;;;;2.57;1.57;;;14.40;99.90;;;;;;5015310;28;20450;-52
2023/08/09 04:05:05;;;;;;;1.40;1.30;;;14.40;99.90;;;;;;5017015;28;20446;-55
2023/08/09 04:07:31;;;;;;;8.10;1.73;;;14.50;99.90;;;;;;5016773;28;20468;-59
2023/08/09 04:09:58;;;;;;;2.50;1.90;;;14.50;99.90;;;;;;5016524;28;20442;-58
2023/08/09 04:12:25;;;;;;;1.93;1.27;;;14.50;99.90;;;;;;5017002;28;20433;-57
2023/08/09 04:14:52;;;;;;;4.50;1.40;;;14.50;99.90;;;;;;5016981;28;20426;-59
2023/08/09 04:17:20;;;;;;;2.50;1.70;;;14.50;99.90;;;;;;5016751;28;20497;-55
2023/08/09 04:19:47;;;;;;;1.97;1.20;;;14.50;99.90;;;;;;5016888;28;20461;-54
2023/08/09 04:22:14;;;;;;;5.57;2.30;;;14.50;99.90;;;;;;5011831;28;20457;-61
2023/08/09 04:24:41;;;;;;;2.50;1.70;;;14.50;99.90;;;;;;4995257;28;20558;-60
2023/08/09 04:27:08;;;;;;;3.20;1.90;;;14.50;99.90;;;;;;4995280;28;20441;-59
2023/08/09 04:29:35;;;;;;;3.63;1.80;;;14.50;99.90;;;;;;4995225;28;21100;-60
2023/08/09 04:32:02;;;;;;;3.07;1.63;;;14.50;99.90;;;;;;4995271;28;20449;-60
2023/08/09 04:34:30;;;;;;;1.67;1.57;;;14.50;99.90;;;;;;4996069;28;20481;-59
2023/08/09 04:36:59;;;;;;;3.50;2.07;;;14.50;99.90;;;;;;4999148;28;20600;-59
2023/08/09 04:39:26;;;;;;;2.13;1.60;;;14.40;99.90;;;;;;4998976;28;20525;-59
2023/08/09 04:41:53;;;;;;;4.60;2.17;;;14.40;99.90;;;;;;4999854;28;20461;-58
2023/08/09 04:44:20;;;;;;;2.77;1.90;;;14.50;99.90;;;;;;4999016;28;20779;-60
2023/08/09 04:46:47;;;;;;;3.10;1.33;;;14.50;99.90;;;;;;4998894;28;20779;-59
2023/08/09 04:49:14;;;;;;;8.17;1.97;;;14.50;99.90;;;;;;4998661;28;20986;-60
2023/08/09 04:51:44;;;;;;;7.00;1.90;;;14.50;99.90;;;;;;4999360;28;20937;-59
2023/08/09 04:54:11;;;;;;;3.70;1.83;;;14.60;99.90;;;;;;5005819;28;20520;-59
2023/08/09 04:56:38;;;;;;;3.73;1.83;;;14.60;99.90;;;;;;5007561;28;20481;-61
2023/08/09 04:59:10;;;;;;;3.20;2.10;;;14.60;99.90;;;;;;5007323;28;20449;-61
2023/08/09 05:01:37;;;;;;;2.40;2.10;;;14.70;99.90;;;;;;5008036;28;20466;-59
2023/08/09 05:04:04;;;;;;;2.50;1.77;;;14.70;99.90;;;;;;5007410;28;21060;-58
2023/08/09 05:06:31;;;;;;;7.33;2.00;;;14.70;99.90;;;;;;4998946;28;20900;-59
2023/08/09 05:08:59;;;;;;;2.70;2.00;;;14.80;99.90;;;;;;4998215;28;21045;-60
2023/08/09 05:11:26;;;;;;;3.10;1.63;;;14.80;99.90;;;;;;4998285;28;20959;-60
2023/08/09 05:13:53;;;;;;;2.00;1.33;;;14.80;99.90;;;;;;4998456;28;20516;-59
2023/08/09 05:16:24;;;;;;;4.57;1.77;;;14.80;99.90;;;;;;4998434;28;20505;-58
2023/08/09 05:18:51;;;;;;;1.60;1.30;;;14.80;99.90;;;;;;4998211;28;20489;-60
2023/08/09 05:21:18;;;;;;;5.23;2.17;;;14.80;99.90;;;;;;4998284;28;20497;-60
2023/08/09 05:23:45;;;;;;;4.30;1.77;;;14.80;99.90;;;;;;4998660;28;20529;-60
2023/08/09 05:26:13;;;;;;;3.93;2.10;;;14.80;99.90;;;;;;4999114;28;20827;-58
2023/08/09 05:28:40;;;;;;;3.50;1.63;;;14.80;99.90;;;;;;4999743;28;20994;-59
2023/08/09 05:31:07;;;;;;;2.40;2.00;;;14.80;99.90;;;;;;4998083;28;20478;-59
2023/08/09 05:33:34;;;;;;;2.87;1.70;;;14.80;99.90;;;;;;4998262;28;20458;-58
2023/08/09 05:36:01;;;;;;;1.80;1.20;;;14.80;99.90;;;;;;4998846;28;20978;-54
2023/08/09 05:38:29;;;;;;;2.07;1.50;;;14.80;99.90;;;;;;5005509;28;20470;-57
2023/08/09 05:40:56;;;;;;;3.47;1.80;;;14.70;99.90;;;;;;5016359;28;20533;-57
2023/08/09 05:43:25;;;;;;;2.70;1.40;;;14.70;99.90;;;;;;4997621;28;20523;-59
2023/08/09 05:45:51;;;;;;;3.10;1.63;;;14.70;99.90;;;;;;4997444;28;20529;-60
2023/08/09 05:48:20;;;;;;;3.17;2.33;;;14.70;99.90;;;;;;5010437;28;20497;-52
2023/08/09 05:50:47;;;;;;;2.13;1.20;;;14.80;99.90;;;;;;5012932;28;20465;-60
2023/08/09 05:53:16;;;;;;;4.60;1.67;;;14.80;99.90;;;;;;5001801;28;20553;-60
2023/08/09 05:55:42;;;;;;;5.00;1.63;;;14.80;99.90;;;;;;5001799;28;20513;-59
2023/08/09 05:58:10;;;;;;;1.93;1.33;;;14.80;99.90;;;;;;4997362;28;20486;-59
2023/08/09 06:00:39;;;;;;;2.23;1.20;;;14.80;99.90;;;;;;4997695;28;20450;-58
2023/08/09 06:03:06;;;;;;;2.93;1.27;;;14.80;99.90;;;;;;4997668;28;20500;-59
2023/08/09 06:05:33;;;;;;;2.07;1.40;;;14.90;99.90;;;;;;5021098;28;20477;-49
2023/08/09 06:08:02;;;;;;;4.17;1.20;;;15.00;99.90;;;;;;5013608;28;20490;-61
2023/08/09 06:10:30;;;;;;;5.13;1.80;;;15.00;99.90;;;;;;5004951;28;20473;-58
2023/08/09 06:12:57;;;;;;;1.87;1.20;;;15.10;99.90;;;;;;5005466;28;20453;-57
2023/08/09 06:15:24;;;;;;;1.30;1.00;;;15.20;99.90;;;;;;5009383;28;20454;-59
2023/08/09 06:17:52;;;;;;;1.20;1.07;;;15.40;99.90;;;;;;5015747;28;20494;-59
2023/08/09 06:20:21;;;;;;;3.30;1.33;;;15.50;99.90;;;;;;5001429;28;20482;-59
2023/08/09 06:22:48;;;;;;;3.17;1.47;;;15.60;99.90;;;;;;4997322;28;20486;-59
2023/08/09 06:25:16;;;;;;;5.50;1.20;;;15.70;99.90;;;;;;4997136;28;20544;-61
2023/08/09 06:27:43;;;;;;;2.17;1.30;;;15.80;99.90;;;;;;4996774;28;20480;-58
2023/08/09 06:30:10;;;;;;;2.47;1.20;;;15.80;99.90;;;;;;4997126;28;20548;-59
2023/08/09 06:32:37;;;;;;;1.47;1.23;;;15.70;99.90;;;;;;4997132;28;20569;-59
2023/08/09 06:35:09;;;;;;;4.10;1.53;;;15.80;99.90;;;;;;4998315;28;20442;-58
2023/08/09 06:37:36;;;;;;;4.03;1.33;;;15.80;99.90;;;;;;5006652;28;20905;-57
2023/08/09 06:40:06;;;;;;;2.73;1.30;;;15.80;99.90;;;;;;5005951;28;20513;-58
2023/08/09 06:42:33;;;;;;;2.03;0.90;;;15.80;99.90;;;;;;5005949;28;20449;-59
2023/08/09 06:45:03;;;;;;;2.73;1.30;;;15.70;99.90;;;;;;5012226;28;20445;-60
2023/08/09 06:47:30;;;;;;;1.53;1.20;;;15.60;99.90;;;;;;5013511;28;20446;-58
2023/08/09 06:49:57;;;;;;;1.57;1.13;;;15.60;99.90;;;;;;4997224;28;20476;-57
2023/08/09 06:52:25;;;;;;;5.63;1.13;;;15.70;99.90;;;;;;4996717;28;20477;-59
2023/08/09 06:54:53;;;;;;;10.53;1.77;;;16.00;99.90;;;;;;4996606;28;20551;-59
2023/08/09 06:57:20;;;;;;;4.50;1.40;;;16.20;99.90;;;;;;4996376;28;20477;-59
2023/08/09 06:59:49;;;;;;;2.47;1.70;;;16.30;99.90;;;;;;4996431;28;20485;-55
2023/08/09 07:02:16;;;;;;;1.80;1.50;;;16.30;99.90;;;;;;4996650;28;20815;-59
2023/08/09 07:04:43;;;;;;;6.07;2.00;;;16.30;99.90;;;;;;4996200;28;20477;-61
2023/08/09 07:07:10;;;;;;;5.13;2.27;;;16.30;99.90;;;;;;4996829;28;20489;-58
2023/08/09 07:09:38;;;;;;;3.00;1.70;;;16.40;99.90;;;;;;5014052;28;20430;-47
2023/08/09 07:12:06;;;;;;;7.93;1.80;;;16.50;99.90;;;;;;5019749;28;20453;-49
2023/08/09 07:14:32;;;;;;;5.40;1.40;;;16.60;99.90;;;;;;5019876;28;20409;-47
2023/08/09 07:24:41;;;;;;;4.90;1.10;;;16.80;99.90;;;;;;5049379;28;20483;-67
2023/08/09 07:29:45;;;;;;;2.63;1.43;;;16.90;99.90;;;;;;5048563;28;20476;-68
2023/08/09 07:32:12;;;;;;;5.30;1.40;;;17.10;99.90;;;;;;5050276;28;20440;-68
2023/08/09 07:34:40;;;;;;;3.80;1.30;;;17.30;99.90;;;;;;5042139;23;20485;-67
2023/08/09 07:37:09;;;;;;;11.67;2.43;;;17.50;99.90;;;;;;5029263;28;20477;-67
2023/08/09 07:39:36;;;;;;;3.70;1.47;;;17.50;99.90;;;;;;5027062;23;20552;-60
2023/08/09 07:42:06;;;;;;;2.80;1.30;;;20.20;99.90;;;;;;5016524;28;20446;-59
2023/08/09 07:44:33;;;;;;;2.23;1.60;;;17.70;99.90;;;;;;4996709;28;20502;-60
2023/08/09 07:47:00;;;;;;;2.93;1.40;;;17.80;99.90;;;;;;4995551;28;20450;-58
2023/08/09 07:49:26;;;;;;;3.37;1.70;;;17.90;99.90;;;;;;4995547;28;20445;-60
2023/08/09 07:51:54;;;;;;;1.50;1.10;;;17.90;99.90;;;;;;4995437;28;20532;-62
2023/08/09 07:54:20;;;;;;;13.10;1.70;;;18.20;99.90;;;;;;4995952;28;20823;-59
2023/08/09 07:56:47;;;;;;;1.70;1.57;;;19.10;99.90;;;;;;4995134;28;20973;-61
2023/08/09 07:59:16;;;;;;;7.10;1.67;;;20.40;99.90;;;;;;4994673;28;20454;-60
2023/08/09 08:01:43;;;;;;;4.43;1.40;;;21.50;99.90;;;;;;4995405;28;20560;-62
2023/08/09 08:04:09;;;;;;;2.20;1.37;;;22.30;99.90;;;;;;4996588;28;20924;-61
2023/08/09 08:06:38;;;;;;;3.43;1.13;;;23.40;99.90;;;;;;4995133;28;20768;-61
2023/08/09 08:09:05;;;;;;;3.60;1.20;;;24.00;99.90;;;;;;4995140;28;20516;-58
2023/08/09 08:11:32;;;;;;;5.63;1.30;;;24.30;99.90;;;;;;4995609;28;20493;-59
2023/08/09 08:13:59;;;;;;;4.40;1.63;;;24.60;99.80;;;;;;4996122;28;20516;-60
2023/08/09 08:16:27;;;;;;;4.30;1.63;;;24.60;98.80;;;;;;4998168;28;20446;-59
2023/08/09 08:18:54;;;;;;;3.67;1.50;;;24.90;98.50;;;;;;4998498;28;20521;-60
2023/08/09 08:21:21;;;;;;;3.07;1.30;;;24.80;97.50;;;;;;5001291;28;20458;-59
2023/08/09 08:23:48;;;;;;;1.73;1.20;;;24.60;98.10;;;;;;5001251;28;20473;-61
2023/08/09 08:26:15;;;;;;;3.47;1.63;;;24.20;98.30;;;;;;5000197;28;20457;-61
2023/08/09 08:28:42;;;;;;;7.57;1.33;;;23.50;98.70;;;;;;5002191;28;20453;-60
2023/08/09 08:31:09;;;;;;;2.77;1.20;;;23.50;99.80;;;;;;4995437;28;20516;-61
2023/08/09 08:33:37;;;;;;;2.03;1.70;;;23.60;99.60;;;;;;4994768;28;20462;-60
2023/08/09 08:36:04;;;;;;;1.90;1.20;;;23.20;98.40;;;;;;4995163;28;20477;-59
2023/08/09 08:38:31;;;;;;;2.83;1.33;;;23.10;99.20;;;;;;5005007;28;20536;-47
2023/08/09 08:41:00;;;;;;;3.43;1.40;;;23.50;98.50;;;;;;5015214;28;20477;-60
2023/08/09 08:43:27;;;;;;;2.23;1.20;;;23.90;97.90;;;;;;4995068;28;20735;-61
2023/08/09 08:45:55;;;;;;;2.73;1.30;;;24.30;98.00;;;;;;4994795;28;20485;-57
2023/08/09 08:48:23;;;;;;;2.33;2.13;;;24.10;96.30;;;;;;4995406;28;20528;-59
2023/08/09 08:50:53;;;;;;;4.70;1.57;;;24.10;95.50;;;;;;4998174;28;20442;-60
2023/08/09 08:53:20;;;;;;;7.00;1.40;;;24.00;96.80;;;;;;4993399;28;20486;-60
2023/08/09 08:55:48;;;;;;;3.73;1.50;;;24.20;96.10;;;;;;4976901;28;20517;-57
2023/08/09 08:58:15;;;;;;;2.70;1.23;;;24.30;95.20;;;;;;4975107;28;20556;-60
2023/08/09 09:00:42;;;;;;;4.10;1.30;;;24.10;95.30;;;;;;4975433;28;20992;-59
2023/08/09 09:03:11;;;;;;;3.83;1.30;;;24.00;96.90;;;;;;4975216;28;20447;-60
2023/08/09 09:05:38;;;;;;;2.23;1.20;;;24.10;96.50;;;;;;4975418;28;20781;-61
2023/08/09 09:08:06;;;;;;;3.53;1.20;;;24.00;94.40;;;;;;4975450;28;20439;-60
2023/08/09 09:10:33;;;;;;;3.83;1.83;;;23.40;95.30;;;;;;4976509;28;20553;-59
2023/08/09 09:13:00;;;;;;;3.17;1.03;;;23.20;97.20;;;;;;4975889;28;20490;-60
2023/08/09 09:15:28;;;;;;;2.60;1.30;;;23.70;98.00;;;;;;4975253;28;20869;-61
2023/08/09 09:17:55;;;;;;;1.70;0.93;;;23.90;96.10;;;;;;4975197;28;20579;-59
2023/08/09 09:20:27;;;;;;;1.90;1.30;;;23.90;95.20;;;;;;4975749;28;20486;-59
2023/08/09 09:22:54;;;;;;;2.80;1.30;;;24.20;94.10;;;;;;4991991;28;20537;-60
2023/08/09 09:25:24;;;;;;;2.30;1.13;;;24.50;93.40;;;;;;4999075;28;20962;-61
2023/08/09 09:27:55;;;;;;;1.40;0.90;;;24.70;93.00;;;;;;5001443;28;20561;-60
2023/08/09 09:30:24;;;;;;;1.53;1.03;;;25.10;90.80;;;;;;5003978;28;20529;-59
2023/08/09 09:32:58;;;;;;;4.03;1.50;;;24.90;90.50;;;;;;5003785;28;20973;-58
2023/08/09 09:35:27;;;;;;;1.53;1.13;;;24.10;92.10;;;;;;5000928;28;20481;-61
2023/08/09 09:37:55;;;;;;;4.20;1.33;;;24.10;93.20;;;;;;4997721;28;20496;-60
2023/08/09 09:40:25;;;;;;;3.00;1.33;;;24.40;92.60;;;;;;4997824;28;20422;-60
2023/08/09 09:42:53;;;;;;;6.10;1.47;;;24.80;91.10;;;;;;4997146;28;20477;-57
2023/08/09 09:45:24;;;;;;;2.77;1.33;;;24.70;90.00;;;;;;4998063;28;20829;-61
2023/08/09 09:47:52;;;;;;;2.47;1.33;;;24.50;91.60;;;;;;4998030;28;20517;-60
2023/08/09 09:50:22;;;;;;;3.70;1.57;;;24.70;91.60;;;;;;4998560;28;20439;-59
2023/08/09 09:52:50;;;;;;;2.93;1.60;;;24.90;92.00;;;;;;4999570;28;20446;-61
2023/08/09 09:55:19;;;;;;;3.80;1.63;;;24.90;91.50;;;;;;5012820;28;20477;-60
2023/08/09 09:57:47;;;;;;;2.13;1.20;;;24.80;90.00;;;;;;5012353;28;20481;-59
2023/08/09 10:00:15;;;;;;;3.13;1.20;;;24.90;90.10;;;;;;5013019;28;20488;-55
2023/08/09 10:02:47;;;;;;;2.90;1.13;;;24.80;90.40;;;;;;5012129;28;20501;-58
2023/08/09 10:05:15;;;;;;;2.37;1.87;;;24.50;90.30;;;;;;5012783;28;21094;-60
2023/08/09 10:07:44;;;;;;;1.90;1.27;;;23.80;86.10;;;;;;5013966;28;20454;-60
2023/08/09 10:10:12;;;;;;;1.93;1.30;;;23.20;89.10;;;;;;5005315;28;20470;-61
2023/08/09 10:12:41;;;;;;;3.50;1.70;;;22.80;90.60;;;;;;4992714;28;20454;-60
2023/08/09 10:15:13;;;;;;;3.60;1.80;;;22.40;91.90;;;;;;4985039;28;20506;-61
2023/08/09 10:17:42;;;;;;;3.17;1.50;;;22.40;94.60;;;;;;4985183;28;20545;-60
2023/08/09 10:20:11;;;;;;;1.70;1.20;;;23.00;92.80;;;;;;4985452;28;20533;-61
2023/08/09 10:22:39;;;;;;;1.33;1.00;;;23.70;89.80;;;;;;4978441;28;20443;-61
2023/08/09 10:25:07;;;;;;;2.37;1.33;;;24.00;87.80;;;;;;4977555;28;20467;-61
2023/08/09 10:27:51;;;;;;;1.97;1.03;;;24.50;90.40;;;;;;4980383;28;20442;-62
2023/08/09 10:30:20;;;;;;;3.20;1.40;;;24.90;83.90;;;;;;4997185;28;20492;-61
2023/08/09 10:32:55;;;;;;;4.40;1.50;;;25.30;84.00;;;;;;4996914;28;20438;-60
2023/08/09 10:35:45;;;;;;;3.57;1.60;;;25.90;86.30;;;;;;4997007;28;20572;-61
2023/08/09 10:38:14;;;;;;;5.57;1.27;;;26.40;80.00;;;;;;5003637;28;20471;-49
2023/08/09 10:40:44;;;;;;;2.83;1.30;;;25.80;76.00;;;;;;5000909;28;20519;-53
2023/08/09 10:43:18;;;;;;;2.17;1.50;;;24.90;77.30;;;;;;5000960;28;20431;-50
2023/08/09 10:45:48;;;;;;;4.83;1.80;;;24.20;80.70;;;;;;5000230;28;20447;-54
2023/08/09 10:48:22;;;;;;;1.40;1.20;;;23.50;83.60;;;;;;4998589;28;20455;-59
2023/08/09 10:51:16;;;;;;;3.10;2.00;;;22.90;84.80;;;;;;4995787;28;20474;-60
2023/08/09 10:53:55;;;;;;;1.93;1.13;;;22.20;89.40;;;;;;4978857;28;20767;-62
2023/08/09 10:56:30;;;;;;;2.13;1.60;;;21.70;91.40;;;;;;4979739;28;20498;-61
2023/08/09 10:59:02;;;;;;;5.63;1.30;;;21.30;92.10;;;;;;4977039;28;20478;-60
2023/08/09 11:01:31;;;;;;;2.93;1.27;;;21.10;93.20;;;;;;4977540;28;20554;-61
2023/08/09 11:03:59;;;;;;;7.00;2.03;;;20.90;94.10;;;;;;4978599;28;20504;-61
2023/08/09 11:06:34;;;;;;;1.97;1.50;;;20.80;94.90;;;;;;4986718;28;20519;-60
2023/08/09 11:09:08;;;;;;;8.07;1.63;;;20.60;99.90;;;;;;4993852;28;20423;-60
2023/08/09 11:11:35;;;;;;;2.43;1.90;;;20.30;99.90;;;;;;4993859;28;20465;-59
2023/08/09 11:14:06;;;;;;;1.93;1.10;;;19.90;99.90;;;;;;4994284;28;20542;-61
2023/08/09 11:16:34;;;;;;;9.43;4.87;;;19.60;99.90;;;;;;4994961;28;20483;-59
2023/08/09 11:19:04;;;;;;;2.50;1.63;;;19.50;99.90;;;;;;4977907;28;20819;-59
2023/08/09 11:21:39;;;;;;;4.40;1.10;;;19.30;99.90;;;;;;4977252;28;20479;-59
2023/08/09 11:24:08;;;;;;;3.10;1.37;;;19.20;99.90;;;;;;4979299;28;20437;-60
2023/08/09 11:26:36;;;;;;;5.03;1.83;;;19.20;99.90;;;;;;4980760;28;20471;-58
2023/08/09 11:29:03;;;;;;;4.37;1.73;;;19.40;99.90;;;;;;4981368;28;20450;-61
2023/08/09 11:31:34;;;;;;;4.53;1.37;;;19.40;99.90;;;;;;4976385;28;21030;-60
2023/08/09 11:34:01;;;;;;;2.60;1.30;;;19.50;99.90;;;;;;4976428;28;20952;-59
2023/08/09 11:36:30;;;;;;;4.30;1.50;;;19.60;99.90;;;;;;4976206;28;20561;-60
2023/08/09 11:38:57;;;;;;;7.37;2.00;;;19.90;99.90;;;;;;4993470;28;20490;-63
2023/08/09 11:41:25;;;;;;;2.00;1.20;;;20.30;99.90;;;;;;4995737;28;20516;-60
2023/08/09 11:43:52;;;;;;;2.50;1.17;;;20.30;99.90;;;;;;4995311;28;20441;-59
2023/08/09 11:46:21;;;;;;;4.10;1.87;;;20.40;99.90;;;;;;4995745;28;20493;-60
2023/08/09 11:48:51;;;;;;;5.60;1.70;;;20.50;99.90;;;;;;4995660;28;20477;-59
2023/08/09 11:51:19;;;;;;;3.97;1.03;;;20.90;99.90;;;;;;4996275;28;20490;-60
2023/08/09 11:53:49;;;;;;;2.00;1.17;;;21.30;99.90;;;;;;4997166;28;20462;-61
2023/08/09 11:56:18;;;;;;;1.73;1.60;;;21.40;99.90;;;;;;4998045;28;20851;-59
2023/08/09 11:58:47;;;;;;;4.03;1.40;;;21.40;99.90;;;;;;5001969;28;20473;-61
2023/08/09 12:01:20;;;;;;;3.30;1.40;;;21.40;99.90;;;;;;4995533;28;20524;-61
2023/08/09 12:03:50;;;;;;;4.03;1.30;;;21.50;99.90;;;;;;4995766;28;20434;-59
2023/08/09 12:06:19;;;;;;;4.67;1.63;;;21.50;99.90;;;;;;4995501;28;20456;-59
2023/08/09 12:08:46;;;;;;;1.60;1.20;;;21.40;99.90;;;;;;4995515;28;20531;-60
2023/08/09 12:11:16;;;;;;;2.70;1.10;;;21.20;99.90;;;;;;4995229;28;20446;-62
2023/08/09 12:13:43;;;;;;;1.40;1.30;;;21.10;99.90;;;;;;4995254;28;20529;-59
2023/08/09 12:16:10;;;;;;;2.77;1.23;;;20.90;99.90;;;;;;4995575;28;20474;-62
2023/08/09 12:18:37;;;;;;;3.40;1.60;;;20.80;99.90;;;;;;4997555;28;20473;-62
2023/08/09 12:21:07;;;;;;;1.90;1.20;;;20.60;99.90;;;;;;4998080;28;20442;-61
2023/08/09 12:23:36;;;;;;;4.37;1.20;;;20.60;99.90;;;;;;4999411;28;20461;-62
2023/08/09 12:26:03;;;;;;;2.60;1.23;;;20.40;99.90;;;;;;4999727;28;20545;-60
2023/08/09 12:28:31;;;;;;;4.80;1.30;;;20.40;99.90;;;;;;5005268;28;20438;-63
2023/08/09 12:30:57;;;;;;;2.93;1.23;;;20.60;99.90;;;;;;5005801;28;20553;-59
2023/08/09 12:33:27;;;;;;;2.20;1.07;;;20.80;99.90;;;;;;5005216;28;20450;-62
2023/08/09 12:35:54;;;;;;;5.23;1.90;;;21.10;99.90;;;;;;5011637;28;20446;-62
2023/08/09 12:38:22;;;;;;;3.47;1.30;;;21.30;99.90;;;;;;5013243;28;20485;-59
2023/08/09 12:40:50;;;;;;;2.33;1.10;;;19.70;99.90;;;;;;5012953;28;20481;-62
2023/08/09 12:43:17;;;;;;;1.33;0.93;;;21.70;99.90;;;;;;5012747;28;20477;-61
2023/08/09 12:45:44;;;;;;;4.20;1.37;;;21.60;99.90;;;;;;5012986;28;20454;-60
2023/08/09 12:48:11;;;;;;;1.50;1.00;;;21.70;99.90;;;;;;5012549;28;20466;-59
2023/08/09 12:50:38;;;;;;;4.87;1.60;;;21.70;99.90;;;;;;5012013;28;20484;-59
2023/08/09 12:53:06;;;;;;;7.50;1.47;;;21.80;99.90;;;;;;5012221;28;20505;-59
2023/08/09 12:55:35;;;;;;;1.73;1.00;;;21.80;99.90;;;;;;5012600;28;20450;-60
2023/08/09 12:58:02;;;;;;;3.37;1.70;;;21.70;99.90;;;;;;5009468;28;20510;-62
2023/08/09 13:00:31;;;;;;;7.00;1.80;;;21.50;99.90;;;;;;4996898;28;20443;-61